x

Buoy B01 - Western Maine Shelf (44030) Wave Buoy

5:04 - Tue 24th Jan 2017 All times are EST. -5 hours from GMT.

  • Sig Wave height 18.0ft
  • Peak Period 11s
  • Wind
    40mph, 51mph gusts
  • Sea Temp 44°f
  • Air Temp 37°f
  • Sea Pressure 1005.4mb
  • Buoy B01 - Western Maine Shelf
  • Buoy B01 - Western Maine Shelf

More Historic Weather Station data

Upgrade to MSW Pro to gain access to the past 30 days of data for over 8000 Wavebouys and Weather Stations around the globe.

Join Pro

Comparision Forecast

View Surf forecast
   
mar. 01/24 5:04 18ft 11s 40 51 mph 1005.4mb 44f 37f
3:04 19ft 11s 38 49 mph 1007.6mb 44f 37f
2:04 15.5ft 11s 40 49 mph 1008.1mb 44f 38f
1:04 14ft 8s 38 45 mph 1009.8mb 44f 37f
lun. 01/23 11:04 15.5ft 8s 34 40 mph 1012.6mb 44f 39f
10:04 13ft 11s 31 40 mph 1013.6mb 44f 39f
9:04 11.5ft 8s 29 36 mph 1014.4mb 44f 38f
8:04 11.5ft 8s 29 36 mph 1014.4mb 44f 38f
7:04 10.5ft 8s 29 36 mph 1015.2mb 44f 37f
6:04  -   -  29 36 mph 1015.5mb - 36f
5:04 11.5ft 8s 29 34 mph 1016.4mb 44f 37f
4:04 9.5ft 8s 27 31 mph 1016.9mb 44f 37f
2:04 9.5ft 6s 29 34 mph 1016.6mb 44f 35f
1:04 9.5ft 8s 27 31 mph 1017.5mb 44f 34f
12:04 9.5ft 8s 27 34 mph 1017.6mb 44f 35f
11:04 9ft 8s 27 34 mph 1018.6mb 44f 35f
10:04 8ft 6s 25 29 mph 1019.4mb 44f 35f
9:04 8ft 8s 25 31 mph 1018.8mb 44f 35f
8:04 8ft 5s 27 31 mph 1018.3mb 44f 35f
7:04 8ft 6s 27 31 mph 1018.8mb 44f 35f
6:04 8ft 6s 27 34 mph 1017.1mb 44f 36f
5:04 7.5ft 8s 27 31 mph 1017.2mb 44f 36f
4:04 7ft 6s 25 29 mph 1017.7mb 44f 37f
3:04 8ft 6s 25 29 mph 1017.5mb 44f 37f
2:04 7.5ft 6s 25 29 mph 1017.3mb 44f 38f
1:04 9ft 6s 25 29 mph 1016.8mb 44f 38f
12:04 6ft 6s 25 29 mph 1016.6mb 44f 38f
dim. 01/22 11:04 6.5ft 6s 27 31 mph 1016.3mb 44f 38f
10:04 8ft 6s 25 29 mph 1016.1mb 44f 39f
9:04 6ft 6s 25 31 mph 1015.1mb 44f 40f
8:04 6.5ft 5s 25 29 mph 1014.5mb 44f 40f
7:04 5ft 5s 22 27 mph 1014.2mb 44f 40f
6:04 5.5ft 5s 22 27 mph 1013.6mb 43f 40f
5:04 5ft 5s 22 25 mph 1012.9mb 43f 40f
4:04 4.5ft 5s 20 25 mph 1012.7mb 43f 40f
3:04 3.5ft 5s 20 25 mph 1011.9mb 43f 39f
2:04 6ft 11s 20 22 mph 1011.6mb 43f 39f
1:04 6ft 5s 22 27 mph 1010.7mb 43f 39f
12:04 4.5ft 5s 22 27 mph 1010.6mb 43f 39f
11:04  -   -  22 27 mph 1010.5mb 42f 39f
10:04 6.5ft 11s 25 29 mph 1010.3mb 42f 40f
9:04 6ft 11s 22 27 mph 1009.7mb 42f 41f
8:04  -   -  18 22 mph 1008.9mb 42f 42f
7:04 5.5ft 16s 9 11 mph 1008.7mb 43f 41f
6:04 4ft 11s 13 16 mph 1007.1mb 43f 41f
5:04 5ft 16s 9 11 mph 1007mb 43f 41f
4:04 4.5ft 11s 9 11 mph 1006.8mb 43f 41f
3:04 5ft 11s 7 9 mph 1007.1mb 43f 42f
2:04 5ft 16s 4 7 mph 1006.6mb 43f 41f
1:04 5ft 16s 2 4 mph 1006.8mb 43f 42f
12:04 6ft 16s 7 9 mph 1006.9mb 43f 42f
sam. 01/21 11:04 5.5ft 16s 7 9 mph 1006.7mb 43f 43f
10:04 5ft 16s 7 9 mph 1007mb 43f 43f
9:04 4.5ft 11s 2 4 mph 1006.8mb 43f 42f
8:04 4ft 11s 4 7 mph 1006.6mb 43f 43f
7:04 4.5ft 11s 9 11 mph 1006.6mb 43f 44f
6:04 3.5ft 11s 4
mph
1006.5mb 43f 43f
5:04 5ft 11s 7
mph
1006.2mb 43f 42f
4:04 4.5ft 11s 2 4 mph 1006.2mb 43f 42f
3:04 5ft 11s 4
mph
1006.1mb 43f 41f
2:04 4.5ft 11s 7 9 mph 1006.6mb 43f 41f
1:04 5.5ft 11s 7 9 mph 1006.8mb 43f 40f
12:04 4.5ft 11s 4 9 mph 1007.9mb 43f 40f
11:04 5ft 11s 4 7 mph 1008.7mb 43f 39f
10:04 4.5ft 11s 9 11 mph 1009.5mb 43f 38f
9:04 5.5ft 11s 16 18 mph 1009.8mb 43f 39f
8:04 4.5ft 11s 18 20 mph 1009.7mb 43f 40f
7:04 4.5ft 11s 16 20 mph 1009.8mb 43f 39f
6:04 4ft 11s 16 18 mph 1010.1mb 43f 39f
5:04 4ft 11s 13 18 mph 1010.5mb 43f 40f
4:04 4.5ft 11s 16 18 mph 1011.2mb 43f 40f
3:04 4ft 11s 13 16 mph 1011.6mb 43f 41f
2:04 4.5ft 11s 13 16 mph 1012.2mb 43f 41f
1:04 4ft 11s 11 13 mph 1012.3mb 43f 41f
12:04 4.5ft 11s 9 16 mph 1012.6mb 43f 41f
ven. 01/20 11:04 4.5ft 11s 13 16 mph 1013.2mb 43f 41f
10:04 4.5ft 11s 9 11 mph 1013.4mb 43f 40f
9:04  -   -  11 13 mph 1013.6mb 43f 41f
8:04 4.5ft 11s 11 13 mph 1013.9mb 43f 41f
7:04 3.5ft 11s 9 11 mph 1014.1mb 43f 40f
6:04 3ft 11s 9 11 mph 1014mb 43f 40f
5:04 3.5ft 11s 9 11 mph 1014.1mb 43f 40f
4:04 4ft 11s 4 7 mph 1014.4mb 43f 39f
3:04 4.5ft 11s 4 7 mph 1014.7mb 43f 38f
2:04 5ft 11s 4 7 mph 1014.8mb 43f 38f
1:04 4.5ft 11s 4 7 mph 1015.2mb 43f 38f
12:04 5.5ft 11s 7 9 mph 1016mb 43f 38f